Bookmark and Share
Track history (hours):
 

HUAL Seoul

Last reported at 2014-Apr-23 02:24 UTC. Time now 2014-Apr-23 09:30 UTC.
Position N 36°47' W 011°22'.

Type: Cargo ship. MMSI: 257496000.

NotesDate/timePositionNaut miles runAvg speedWind from/ knotsBaromVisibWave heightAir tempDewpointWater temp
2014-Apr-23 02:24N 36°47' W 011°22'1817.8
2014-Apr-23 01:24N 36°51' W 011°44'59017.8
2014-Apr-21 16:11N 39°01' W 023°54'1818.4
2014-Apr-21 15:11N 39°04' W 024°17'1817.9
2014-Apr-21 14:11N 39°07' W 024°40'2917.8
2014-Apr-21 12:33N 39°11' W 025°17'1717.6
2014-Apr-21 11:33N 39°14' W 025°39'7318.1
2014-Apr-21 07:33N 39°24' W 027°12'1818.2
2014-Apr-21 06:33N 39°27' W 027°35'1818.4
2014-Apr-21 05:34N 39°30' W 027°59'1817.9
2014-Apr-21 04:34N 39°33' W 028°22'1818.0
2014-Apr-21 03:33N 39°35' W 028°45'1817.9
2014-Apr-21 02:34N 39°38' W 029°08'1818.1
2014-Apr-21 01:33N 39°41' W 029°31'1817.8
2014-Apr-21 00:33N 39°43' W 029°54'2117.7
2014-Apr-20 23:23N 39°45' W 030°21'1417.6
2014-Apr-20 22:34N 39°47' W 030°40'1817.9
2014-Apr-20 21:32N 39°48' W 031°03'1917.8
2014-Apr-20 20:28N 39°49' W 031°28'1617.8
2014-Apr-20 19:33N 39°49' W 031°49'  

Dump ship's entire track history

sailing weather and tide predictions

HUAL Seoul — LADO6 — position and weather